createdAt,value
2019-01-23T00:02:37.146Z,260.87
2019-01-23T00:05:18.209Z,264.67
2019-01-23T00:07:59.072Z,244.93
2019-01-23T00:10:40.242Z,260.73
2019-01-23T00:13:21.309Z,258.07
2019-01-23T00:16:02.283Z,252.03
2019-01-23T00:18:43.235Z,257.73
2019-01-23T00:21:23.897Z,250.17
2019-01-23T00:24:04.873Z,291.87
2019-01-23T00:26:46.441Z,273.97
2019-01-23T00:29:27.082Z,269.40
2019-01-23T00:32:08.052Z,257.60
2019-01-23T00:34:49.085Z,262.57
2019-01-23T00:37:29.963Z,264.40
2019-01-23T00:40:10.901Z,252.73
2019-01-23T00:42:51.553Z,244.43
2019-01-23T00:45:32.445Z,240.97
2019-01-23T00:48:13.845Z,234.93
2019-01-23T00:50:54.768Z,265.33
2019-01-23T00:53:36.360Z,280.50
2019-01-23T00:56:17.619Z,260.33
2019-01-23T00:58:58.900Z,258.67
2019-01-23T01:01:40.287Z,243.60
2019-01-23T01:04:20.501Z,242.00
2019-01-23T01:07:01.649Z,226.63
2019-01-23T01:09:42.768Z,229.37
2019-01-23T01:12:23.723Z,231.30
2019-01-23T01:15:04.826Z,227.80
2019-01-23T01:17:46.283Z,248.90
2019-01-23T01:20:27.246Z,255.90
2019-01-23T01:23:08.208Z,248.03
2019-01-23T01:25:49.306Z,236.90
2019-01-23T01:28:30.196Z,260.90
2019-01-23T01:31:11.307Z,263.03
2019-01-23T01:33:52.372Z,273.67
2019-01-23T01:36:33.404Z,264.77
2019-01-23T01:39:14.399Z,252.63
2019-01-23T01:41:55.559Z,224.30
2019-01-23T01:44:36.669Z,240.87
2019-01-23T01:47:18.284Z,222.30
2019-01-23T01:49:59.180Z,210.73
2019-01-23T01:52:40.403Z,227.37
2019-01-23T01:55:21.353Z,259.67
2019-01-23T01:58:02.599Z,276.73
2019-01-23T02:00:43.602Z,286.13
2019-01-23T02:03:24.722Z,274.97
2019-01-23T02:06:06.431Z,251.83
2019-01-23T02:08:47.443Z,245.00
2019-01-23T02:11:28.995Z,275.90
2019-01-23T02:14:10.259Z,283.67
2019-01-23T02:16:51.247Z,265.43
2019-01-23T02:19:32.516Z,276.50
2019-01-23T02:22:13.531Z,300.83
2019-01-23T02:24:54.444Z,385.87
2019-01-23T02:27:35.633Z,430.10
2019-01-23T02:30:16.520Z,422.27
2019-01-23T02:32:57.429Z,499.23
2019-01-23T02:35:38.401Z,583.63
2019-01-23T02:38:19.909Z,499.43
2019-01-23T02:41:00.676Z,487.77
2019-01-23T02:43:41.848Z,455.03
2019-01-23T02:46:23.417Z,458.27
2019-01-23T02:49:04.343Z,434.30
2019-01-23T02:51:45.372Z,414.97
2019-01-23T02:54:25.942Z,408.70
2019-01-23T02:57:06.810Z,423.97
2019-01-23T02:59:47.406Z,431.50
2019-01-23T03:02:28.638Z,419.93
2019-01-23T03:05:09.720Z,416.27
2019-01-23T03:07:50.729Z,383.77
2019-01-23T03:10:31.712Z,351.93
2019-01-23T03:13:12.993Z,341.03
2019-01-23T03:15:53.745Z,327.83
2019-01-23T03:18:34.483Z,311.03
2019-01-23T03:21:15.892Z,311.33
2019-01-23T03:23:56.939Z,308.17
2019-01-23T03:26:37.887Z,302.03
2019-01-23T03:29:24.556Z,312.57
2019-01-23T03:32:00.084Z,293.40
2019-01-23T03:34:41.353Z,284.53
2019-01-23T03:37:22.297Z,291.67
2019-01-23T03:40:03.441Z,288.87
2019-01-23T03:42:44.293Z,257.67
2019-01-23T03:45:25.466Z,250.20
2019-01-23T03:48:06.754Z,246.87
2019-01-23T03:50:47.814Z,236.27
2019-01-23T03:53:28.709Z,235.63
2019-01-23T03:56:09.654Z,233.27
2019-01-23T03:58:50.512Z,215.37
2019-01-23T04:01:31.614Z,214.73
2019-01-23T04:04:12.623Z,212.17
2019-01-23T04:06:53.802Z,214.53
2019-01-23T04:09:34.625Z,209.23
2019-01-23T04:12:14.767Z,213.97
2019-01-23T04:14:56.005Z,205.63
2019-01-23T04:17:36.442Z,201.43
2019-01-23T04:20:17.037Z,200.77
2019-01-23T04:22:57.888Z,192.57
2019-01-23T04:25:38.514Z,190.83
2019-01-23T04:28:19.855Z,180.33
2019-01-23T04:31:00.862Z,158.63
2019-01-23T04:33:41.715Z,159.40
2019-01-23T04:36:22.811Z,170.33
2019-01-23T04:39:03.747Z,167.43
2019-01-23T04:41:44.676Z,165.00
2019-01-23T04:44:25.241Z,165.67
2019-01-23T04:47:06.591Z,172.13
2019-01-23T04:49:48.183Z,170.73
2019-01-23T04:52:29.208Z,174.63
2019-01-23T04:55:10.080Z,179.63
2019-01-23T04:57:51.399Z,175.63
2019-01-23T05:00:32.303Z,167.00
2019-01-23T05:03:13.154Z,170.57
2019-01-23T05:05:53.947Z,175.17
2019-01-23T05:08:34.752Z,196.97
2019-01-23T05:11:15.304Z,181.33
2019-01-23T05:13:56.594Z,172.67
2019-01-23T05:16:37.670Z,160.80
2019-01-23T05:19:18.822Z,153.37
2019-01-23T05:21:59.487Z,153.03
2019-01-23T05:24:41.296Z,159.10
2019-01-23T05:27:22.278Z,166.80
2019-01-23T05:30:02.835Z,160.63
2019-01-23T05:32:43.838Z,166.43
2019-01-23T05:35:24.864Z,160.97
2019-01-23T05:38:06.783Z,151.27
2019-01-23T05:40:48.032Z,138.80
2019-01-23T05:43:28.998Z,140.90
2019-01-23T05:46:09.610Z,146.17
2019-01-23T05:48:50.470Z,146.50
2019-01-23T05:51:31.310Z,141.43
2019-01-23T05:54:12.190Z,141.10
2019-01-23T05:56:53.050Z,134.00
2019-01-23T05:59:34.123Z,141.37
2019-01-23T06:02:14.490Z,138.27
2019-01-23T06:04:56.250Z,137.27
2019-01-23T06:07:39.012Z,128.53
2019-01-23T06:10:20.358Z,125.20
2019-01-23T06:13:01.478Z,132.27
2019-01-23T06:15:42.548Z,125.83
2019-01-23T06:18:23.149Z,114.43
2019-01-23T06:21:04.077Z,104.43
2019-01-23T06:23:45.066Z,106.27
2019-01-23T06:26:25.834Z,118.53
2019-01-23T06:29:06.735Z,124.50
2019-01-23T06:31:46.885Z,113.53
2019-01-23T06:34:27.864Z,116.23
2019-01-23T06:37:08.505Z,111.77
2019-01-23T06:39:49.562Z,110.07
2019-01-23T06:42:30.637Z,108.30
2019-01-23T06:45:11.082Z,105.17
2019-01-23T06:47:51.699Z,113.57
2019-01-23T06:50:32.663Z,114.73
2019-01-23T06:53:14.217Z,115.43
2019-01-23T06:55:53.959Z,103.57
2019-01-23T06:58:34.029Z,103.30
2019-01-23T07:01:14.581Z,95.70
2019-01-23T07:03:55.040Z,88.90
2019-01-23T07:06:35.995Z,94.03
2019-01-23T07:09:17.444Z,107.63
2019-01-23T07:11:58.177Z,95.43
2019-01-23T07:14:38.055Z,95.20
2019-01-23T07:17:18.712Z,105.93
2019-01-23T07:19:58.940Z,116.00
2019-01-23T07:22:40.439Z,112.93
2019-01-23T07:25:21.715Z,110.50
2019-01-23T07:28:02.274Z,101.60
2019-01-23T07:30:42.935Z,104.00
2019-01-23T07:33:23.694Z,103.60
2019-01-23T07:36:04.483Z,97.90
2019-01-23T07:38:45.509Z,95.17
2019-01-23T07:41:26.535Z,91.40
2019-01-23T07:44:07.709Z,89.03
2019-01-23T07:46:48.763Z,86.60
2019-01-23T07:49:29.590Z,81.97
2019-01-23T07:52:10.655Z,80.77
2019-01-23T07:54:51.231Z,78.00
2019-01-23T07:57:32.173Z,75.77
2019-01-23T08:00:12.546Z,77.47
2019-01-23T08:02:53.328Z,80.40
2019-01-23T08:05:34.750Z,75.70
2019-01-23T08:08:15.474Z,75.27
2019-01-23T08:10:56.581Z,73.77
2019-01-23T08:13:37.090Z,77.27
2019-01-23T08:16:17.932Z,78.50
2019-01-23T08:18:58.888Z,83.57
2019-01-23T08:21:39.862Z,89.23
2019-01-23T08:24:20.267Z,81.13
2019-01-23T08:27:06.890Z,82.67
2019-01-23T08:29:42.748Z,86.00
2019-01-23T08:32:23.180Z,83.87
2019-01-23T08:35:04.067Z,85.93
2019-01-23T08:37:45.138Z,78.20
2019-01-23T08:40:26.252Z,75.30
2019-01-23T08:43:06.891Z,79.13
2019-01-23T08:45:48.262Z,85.43
2019-01-23T08:48:28.613Z,84.13
2019-01-23T08:51:09.545Z,84.83
2019-01-23T08:53:49.769Z,86.43
2019-01-23T08:56:30.420Z,83.93
2019-01-23T08:59:11.387Z,81.87
2019-01-23T09:01:51.902Z,78.40
2019-01-23T09:04:32.673Z,74.70
2019-01-23T09:07:13.630Z,75.07
2019-01-23T09:09:54.586Z,72.73
2019-01-23T09:12:35.965Z,71.67
2019-01-23T09:15:17.139Z,68.73
2019-01-23T09:17:58.356Z,65.57
2019-01-23T09:20:39.508Z,61.17
2019-01-23T09:23:20.664Z,65.50
2019-01-23T09:26:01.229Z,67.37
2019-01-23T09:28:42.195Z,64.20
2019-01-23T09:31:23.186Z,61.70
2019-01-23T09:34:03.596Z,61.00
2019-01-23T09:36:44.409Z,64.37
2019-01-23T09:39:24.550Z,63.93
2019-01-23T09:42:06.936Z,64.63
2019-01-23T09:44:50.513Z,64.70
2019-01-23T09:47:31.880Z,67.43
2019-01-23T09:50:12.874Z,67.13
2019-01-23T09:52:53.865Z,67.63
2019-01-23T09:55:34.392Z,70.40
2019-01-23T09:58:15.231Z,70.20
2019-01-23T10:00:59.691Z,66.20
2019-01-23T10:03:38.088Z,69.40
2019-01-23T10:06:17.960Z,67.03
2019-01-23T10:08:58.270Z,68.93
2019-01-23T10:11:39.181Z,69.63
2019-01-23T10:14:20.157Z,65.83
2019-01-23T10:17:01.120Z,67.17
2019-01-23T10:19:41.607Z,63.50
2019-01-23T10:22:22.707Z,64.83
2019-01-23T10:25:03.269Z,66.47
2019-01-23T10:27:43.983Z,65.47
2019-01-23T10:30:24.640Z,65.80
2019-01-23T10:33:05.070Z,64.17
2019-01-23T10:35:46.549Z,61.27
2019-01-23T10:38:27.509Z,72.60
2019-01-23T10:41:07.556Z,68.07
2019-01-23T10:43:48.545Z,69.63
2019-01-23T10:46:29.222Z,62.53
2019-01-23T10:49:10.180Z,63.90
2019-01-23T10:51:50.714Z,62.60
2019-01-23T10:54:31.668Z,64.33
2019-01-23T10:57:12.777Z,61.93
2019-01-23T10:59:53.218Z,62.50
2019-01-23T11:02:34.352Z,64.60
2019-01-23T11:05:14.632Z,67.47
2019-01-23T11:07:55.443Z,72.03
2019-01-23T11:10:35.929Z,64.90
2019-01-23T11:13:16.573Z,64.23
2019-01-23T11:15:57.694Z,66.93
2019-01-23T11:18:38.690Z,67.10
2019-01-23T11:21:19.712Z,68.87
2019-01-23T11:24:00.046Z,67.37
2019-01-23T11:26:41.375Z,71.40
2019-01-23T11:29:22.549Z,71.83
2019-01-23T11:32:03.360Z,71.33
2019-01-23T11:34:44.145Z,74.57
2019-01-23T11:37:24.529Z,71.60
2019-01-23T11:40:05.238Z,72.67
2019-01-23T11:42:46.529Z,74.40
2019-01-23T11:45:26.824Z,77.40
2019-01-23T11:48:07.376Z,75.17
2019-01-23T11:50:48.009Z,70.37
2019-01-23T11:53:29.053Z,73.73
2019-01-23T11:56:10.272Z,73.57
2019-01-23T11:58:50.976Z,76.40
2019-01-23T12:01:31.333Z,77.50
2019-01-23T12:04:12.095Z,76.10
2019-01-23T12:06:53.845Z,79.23
2019-01-23T12:09:34.395Z,82.03
2019-01-23T12:12:15.407Z,89.27
2019-01-23T12:14:56.789Z,91.30
2019-01-23T12:17:37.419Z,87.77
2019-01-23T12:20:18.411Z,81.50
2019-01-23T12:22:59.594Z,81.50
2019-01-23T12:25:40.603Z,88.50
2019-01-23T12:28:21.345Z,86.37
2019-01-23T12:31:01.977Z,92.70
2019-01-23T12:33:43.168Z,107.40
2019-01-23T12:36:23.886Z,130.13
2019-01-23T12:39:05.288Z,117.17
2019-01-23T12:41:45.875Z,113.12
2019-01-23T12:44:26.800Z,110.67
2019-01-23T12:47:07.469Z,91.90
2019-01-23T12:49:47.666Z,88.83
2019-01-23T12:52:30.362Z,91.57
2019-01-23T12:55:11.973Z,91.07
2019-01-23T12:57:53.510Z,89.93
2019-01-23T13:00:34.990Z,94.50
2019-01-23T13:03:15.647Z,98.47
2019-01-23T13:05:55.961Z,102.17
2019-01-23T13:08:36.395Z,103.07
2019-01-23T13:11:20.607Z,102.63
2019-01-23T13:14:01.905Z,100.33
2019-01-23T13:16:44.594Z,106.63
2019-01-23T13:19:25.486Z,105.33
2019-01-23T13:22:06.478Z,104.70
2019-01-23T13:24:47.074Z,110.97
2019-01-23T13:27:28.118Z,111.30
2019-01-23T13:30:09.239Z,111.57
2019-01-23T13:32:50.246Z,107.63
2019-01-23T13:35:31.136Z,110.40
2019-01-23T13:38:11.705Z,110.90
2019-01-23T13:40:52.525Z,104.53
2019-01-23T13:43:33.034Z,110.67
2019-01-23T13:46:13.792Z,110.73
2019-01-23T13:48:54.584Z,137.10
2019-01-23T13:51:37.812Z,150.97
2019-01-23T13:54:18.550Z,154.90
2019-01-23T13:56:59.764Z,151.20
2019-01-23T13:59:40.512Z,140.63
2019-01-23T14:02:21.575Z,134.93
2019-01-23T14:05:02.118Z,129.00
2019-01-23T14:07:43.405Z,126.50
2019-01-23T14:10:24.026Z,127.80
2019-01-23T14:13:04.965Z,136.20
2019-01-23T14:15:46.270Z,139.23
2019-01-23T14:18:27.314Z,147.40
2019-01-23T14:21:08.792Z,131.23
2019-01-23T14:23:49.016Z,134.70
2019-01-23T14:29:22.327Z,150.77
2019-01-23T14:32:03.814Z,153.60
2019-01-23T14:34:46.821Z,154.20
2019-01-23T14:37:29.605Z,150.47
2019-01-23T14:40:10.297Z,146.03
2019-01-23T14:42:51.211Z,150.07
2019-01-23T14:45:32.275Z,156.93
2019-01-23T14:48:13.162Z,178.60
2019-01-23T14:50:53.686Z,180.60
2019-01-23T14:53:35.378Z,169.80
2019-01-23T14:56:15.683Z,170.07
2019-01-23T14:58:56.663Z,164.00
2019-01-23T15:01:37.308Z,168.50
2019-01-23T15:04:19.014Z,171.70
2019-01-23T15:07:00.166Z,182.47
2019-01-23T15:09:40.708Z,165.43
2019-01-23T15:12:21.439Z,163.87
2019-01-23T15:15:02.403Z,166.03
2019-01-23T15:17:43.703Z,174.87
2019-01-23T15:20:25.102Z,175.97
2019-01-23T15:23:07.186Z,173.17
2019-01-23T15:25:48.306Z,165.20
2019-01-23T15:28:29.173Z,160.90
2019-01-23T15:31:09.755Z,159.40
2019-01-23T15:33:50.821Z,185.67
2019-01-23T15:36:31.688Z,196.37
2019-01-23T15:39:13.076Z,186.33
2019-01-23T15:41:54.305Z,191.77
2019-01-23T15:44:35.428Z,373.03
2019-01-23T15:47:16.182Z,276.73
2019-01-23T15:49:57.604Z,195.53
2019-01-23T15:52:39.148Z,190.73
2019-01-23T15:55:21.922Z,193.10
2019-01-23T15:58:02.780Z,222.23
2019-01-23T16:00:45.361Z,217.73
2019-01-23T16:03:26.539Z,212.37
2019-01-23T16:06:07.427Z,206.50
2019-01-23T16:08:48.245Z,209.90
2019-01-23T16:11:29.964Z,191.80
2019-01-23T16:14:11.570Z,219.13
2019-01-23T16:16:52.655Z,230.13
2019-01-23T16:19:33.823Z,207.90
2019-01-23T16:22:14.337Z,211.43
2019-01-23T16:24:55.470Z,209.33
2019-01-23T16:30:21.175Z,206.87
2019-01-23T16:33:02.231Z,211.90
2019-01-23T16:35:43.074Z,200.10
2019-01-23T16:38:24.179Z,225.93
2019-01-23T16:41:06.025Z,221.37
2019-01-23T16:43:47.327Z,204.10
2019-01-23T16:46:28.244Z,202.80
2019-01-23T16:49:09.023Z,201.47
2019-01-23T16:51:51.410Z,215.17
2019-01-23T16:54:32.187Z,225.27
2019-01-23T16:57:13.361Z,212.60
2019-01-23T16:59:54.615Z,208.10
2019-01-23T17:02:38.628Z,201.43
2019-01-23T17:05:16.503Z,203.80
2019-01-23T17:08:01.801Z,196.70
2019-01-23T17:13:32.882Z,208.13
2019-01-23T17:16:15.420Z,191.73
2019-01-23T17:18:57.581Z,206.37
2019-01-23T17:21:38.097Z,211.90
2019-01-23T17:24:23.027Z,214.03
2019-01-23T17:27:06.482Z,204.30
2019-01-23T17:29:47.820Z,193.30
2019-01-23T17:35:18.331Z,195.03
2019-01-23T17:38:04.221Z,196.50
2019-01-23T17:51:58.135Z,200.50
2019-01-23T17:54:39.090Z,188.70
2019-01-23T17:57:20.025Z,188.60
2019-01-23T18:00:01.029Z,194.57
2019-01-23T18:02:42.920Z,186.60
2019-01-23T18:05:23.950Z,186.33
2019-01-23T18:08:05.261Z,196.70
2019-01-23T18:10:45.854Z,198.13
2019-01-23T18:13:26.693Z,188.13
2019-01-23T18:16:13.487Z,178.13
2019-01-23T18:18:54.174Z,170.47
2019-01-23T18:21:34.982Z,180.43
2019-01-23T18:24:15.649Z,178.13
2019-01-23T18:26:56.286Z,175.77
2019-01-23T18:29:37.275Z,179.63
2019-01-23T18:32:17.949Z,185.77
2019-01-23T18:34:58.835Z,191.97
2019-01-23T18:37:39.660Z,188.63
2019-01-23T18:40:20.356Z,196.10
2019-01-23T18:43:01.290Z,203.00
2019-01-23T18:45:41.984Z,186.37
2019-01-23T18:48:23.357Z,175.57
2019-01-23T18:51:04.590Z,173.57
2019-01-23T18:53:45.648Z,174.50
2019-01-23T18:56:26.616Z,172.53
2019-01-23T18:59:07.724Z,177.27
2019-01-23T19:01:48.853Z,175.43
2019-01-23T19:04:29.849Z,189.57
2019-01-23T19:07:10.459Z,186.17
2019-01-23T19:09:52.363Z,179.17
2019-01-23T19:12:32.702Z,184.73
2019-01-23T19:15:12.917Z,189.40
2019-01-23T19:17:54.099Z,180.87
2019-01-23T19:20:34.981Z,174.77
2019-01-23T19:23:15.581Z,174.07
2019-01-23T19:25:55.943Z,174.50
2019-01-23T19:28:36.977Z,176.50
2019-01-23T19:31:17.593Z,189.37
2019-01-23T19:33:58.274Z,179.07
2019-01-23T19:36:39.417Z,175.47
2019-01-23T19:39:20.447Z,177.83
2019-01-23T19:42:01.307Z,186.47
2019-01-23T19:44:41.984Z,191.90
2019-01-23T19:47:22.959Z,189.87
2019-01-23T19:50:03.715Z,198.33
2019-01-23T19:52:44.508Z,187.33
2019-01-23T19:55:24.966Z,191.60
2019-01-23T19:58:06.117Z,188.17
2019-01-23T20:00:46.796Z,213.93
2019-01-23T20:03:28.065Z,208.10
2019-01-23T20:06:08.836Z,205.73
2019-01-23T20:08:49.545Z,193.60
2019-01-23T20:11:30.597Z,188.30
2019-01-23T20:14:11.516Z,192.20
2019-01-23T20:16:52.551Z,193.60
2019-01-23T20:19:33.695Z,193.93
2019-01-23T20:22:14.517Z,206.53
2019-01-23T20:24:55.745Z,199.77
2019-01-23T20:27:36.680Z,201.93
2019-01-23T20:30:17.662Z,198.53
2019-01-23T20:32:58.438Z,197.27
2019-01-23T20:35:39.455Z,191.33
2019-01-23T20:38:20.066Z,191.30
2019-01-23T20:41:01.546Z,188.77
2019-01-23T20:43:42.067Z,190.03
2019-01-23T20:46:23.391Z,191.30
2019-01-23T20:49:04.381Z,196.00
2019-01-23T20:51:45.240Z,192.30
2019-01-23T20:54:25.786Z,205.60
2019-01-23T20:57:07.261Z,198.50
2019-01-23T20:59:48.164Z,200.17
2019-01-23T21:02:28.609Z,204.63
2019-01-23T21:05:09.229Z,196.53
2019-01-23T21:07:49.818Z,195.50
2019-01-23T21:10:30.475Z,200.30
2019-01-23T21:13:10.964Z,198.03
2019-01-23T21:15:51.672Z,188.63
2019-01-23T21:18:31.992Z,202.10
2019-01-23T21:21:12.376Z,207.70
2019-01-23T21:23:52.805Z,210.20
2019-01-23T21:26:33.182Z,202.77
2019-01-23T21:29:13.822Z,216.00
2019-01-23T21:31:54.474Z,210.30
2019-01-23T21:34:35.189Z,212.47
2019-01-23T21:37:16.178Z,202.07
2019-01-23T21:39:56.839Z,211.07
2019-01-23T21:42:37.511Z,214.50
2019-01-23T21:45:18.159Z,228.20
2019-01-23T21:47:58.750Z,217.80
2019-01-23T21:50:39.391Z,226.17
2019-01-23T21:53:19.828Z,201.40
2019-01-23T21:56:00.806Z,190.30
2019-01-23T21:58:42.330Z,190.50
2019-01-23T22:01:23.296Z,235.43
2019-01-23T22:04:04.101Z,221.23
2019-01-23T22:06:45.133Z,212.90
2019-01-23T22:09:26.180Z,205.93
2019-01-23T22:12:07.458Z,202.57
2019-01-23T22:14:48.346Z,200.73
2019-01-23T22:17:28.971Z,195.80
2019-01-23T22:20:09.780Z,197.53
2019-01-23T22:22:50.953Z,199.30
2019-01-23T22:25:31.584Z,203.20
2019-01-23T22:28:12.399Z,212.20
2019-01-23T22:30:53.374Z,199.00
2019-01-23T22:33:34.219Z,194.23
2019-01-23T22:36:15.166Z,194.80
2019-01-23T22:38:56.469Z,205.97
2019-01-23T22:41:37.986Z,207.10
2019-01-23T22:44:18.970Z,203.50
2019-01-23T22:47:00.196Z,202.33
2019-01-23T22:49:41.107Z,215.37
2019-01-23T22:52:21.753Z,217.83
2019-01-23T22:55:02.827Z,211.80
2019-01-23T22:57:44.389Z,205.93
2019-01-23T23:00:25.232Z,224.63
2019-01-23T23:03:06.647Z,217.00
2019-01-23T23:05:47.534Z,207.33
2019-01-23T23:08:28.529Z,209.37
2019-01-23T23:11:09.319Z,211.23
2019-01-23T23:13:50.579Z,205.73
2019-01-23T23:16:31.741Z,214.37
2019-01-23T23:19:13.753Z,205.67
2019-01-23T23:21:54.905Z,210.10
2019-01-23T23:24:36.088Z,206.07
2019-01-23T23:27:16.972Z,207.20
2019-01-23T23:29:57.685Z,205.03
2019-01-23T23:32:38.462Z,211.40
2019-01-23T23:35:19.386Z,212.83
2019-01-23T23:38:00.676Z,230.27
2019-01-23T23:40:41.978Z,213.83
2019-01-23T23:43:23.042Z,205.90
2019-01-23T23:46:03.797Z,204.40
2019-01-23T23:48:44.821Z,203.37
2019-01-23T23:51:26.104Z,207.73
2019-01-23T23:54:07.378Z,225.43
2019-01-23T23:56:48.255Z,219.83
2019-01-23T23:59:29.313Z,227.00
